Grootfontein, Namibia

5:37 PM WAT on September 03, 2015 (GMT +0100)
Grootfontein | | Change Station
CLOSE
Current Station
Airport
Location: Grootfontein,
Elevation: 4593 ft
Nearby Weather Stations

Elev 4593 ft 19.60 °S, 18.12 °E | Updated 37 minutes ago

Clear
Clear
82 °F
Feels Like 82 °F
N
5
Wind Variable Wind from ENE
Gusts mph

Today
High -- | Low -- °F
--% Chance of Precip.
Yesterday
High -- | Low -- °F
Precip. -- in
5:54 AM 5:39 PM
Waning Gibbous, 69% visible
Pressure 30.18 in
Visibility -9999.0 miles
Clouds
Dew Point 23 °F
Humidity 11%
Rainfall 0.00 in
Snow Depth Not available.
UV Not available.
Pollen Not available.
Air Quality Not available.
Flu Activity Not available.
METAR FYGF 031600Z AUTO 07004KT //// // ////// 28/M05 Q1022
Pressure 30.18 in
Visibility -9999.0 miles
Clouds
Dew Point 23 °F
Humidity 11%
Rainfall 0.00 in
Snow Depth Not available.
UV Not available.
Pollen Not available.
Air Quality Not available.
Flu Activity Not available.
METAR FYGF 031600Z AUTO 07004KT //// // ////// 28/M05 Q1022

10-Day Weather Forecast

×

Almanac

Astronomy

Sep. 03, 2015 Rise Set
Actual Time
Civil Twilight
Nautical Twilight
Astronomical Twilight
Moon
Length of Visible Light
Length of Day
Tomorrow will be .
, % of the Moon is Illuminated

Today's Extremes

Country Highs Country Lows

Community

WunderPhotos

Upload Photos

1,851,988 photos uploaded!

WunderBlogs® & News

Nearby

Air Quality

  Air Quality AQ Index Pollutant
Not available.

Snow Depth

Station Depth Elevation

Earthquake Activity

City Distance Mag. Time & Date
Minimum magnitude displayed is 2.5.

Coastal Water Temperatures

Place Temperature

Stations

Nearby Weather Stations

Station Location Temp. Windchill Dew Point Humidity Wind Precip. Elev Updated Type